This is the latest recevied weather packets stored in our database for station/object N3SBK. If no packets are shown the sender has not sent any weather packets the latest 10 day(s).
| Time | Temp. | Humidity | Pressure | Rain* | Wind** | Luminosity | Snow |
|---|---|---|---|---|---|---|---|
| 1788121147 | 27.22° C | 65% | 1011.7 hPa | 0 mm | - | 91 W/m² | - |
| 1788120840 | 27.22° C | 64% | 1011.7 hPa | 0 mm | - | 445 W/m² | - |
| 1788120535 | 26.67° C | 64% | 1011.6 hPa | 0 mm | - | 464 W/m² | - |
| 1788120235 | 27.78° C | 63% | 1011.7 hPa | 0 mm | - | 183 W/m² | - |
| 1788119925 | 28.33° C | 57% | 1011.7 hPa | 0 mm | - | 278 W/m² | - |
| 1788119624 | 28.89° C | 57% | 1011.8 hPa | 0 mm | - | 182 W/m² | - |
| 1788119323 | 28.33° C | 62% | 1012.1 hPa | 0 mm | - | 477 W/m² | - |
| 1788119016 | 27.78° C | 62% | 1012.2 hPa | 0 mm | - | 454 W/m² | - |
| 1788118712 | 27.78° C | 62% | 1012.2 hPa | 0 mm | - | 203 W/m² | - |
| 1788118411 | 26.11° C | 67% | 1012.1 hPa | 0 mm | - | 566 W/m² | - |
| 1788118107 | 25° C | 75% | 1012.4 hPa | 0 mm | - | 572 W/m² | - |
| 1788117807 | 25° C | 73% | 1012.4 hPa | 0 mm | - | 92 W/m² | - |
| 1788117502 | 25° C | 72% | 1012.5 hPa | 0 mm | - | 72 W/m² | - |
| 1788117202 | 25° C | 72% | 1012.7 hPa | 0 mm | - | 70 W/m² | - |
| 1788116898 | 25° C | 71% | 1012.6 hPa | 0 mm | - | 62 W/m² | - |
| 1788116598 | 25.56° C | 69% | 1012.7 hPa | 0 mm | - | 42 W/m² | - |
| 1788116296 | 26.11° C | 66% | 1012.7 hPa | 0 mm | - | 43 W/m² | - |
| 1788115992 | 26.67° C | 66% | 1012.7 hPa | 0 mm | - | 48 W/m² | - |
| 1788115687 | 26.67° C | 63% | 1012.7 hPa | 0 mm | - | 51 W/m² | - |
| 1788115386 | 27.22° C | 61% | 1012.9 hPa | 0 mm | - | 70 W/m² | - |
| 1788115082 | 28.33° C | 59% | 1012.7 hPa | 0 mm | - | 95 W/m² | - |
| 1788114782 | 28.89° C | 58% | 1012.6 hPa | 0 mm | - | 119 W/m² | - |
| 1788114477 | 29.44° C | 55% | 1012.9 hPa | 0 mm | - | 327 W/m² | - |
| 1788114173 | 28.89° C | 61% | 1012.7 hPa | 0 mm | - | 590 W/m² | - |
| 1788113869 | 27.78° C | 58% | 1012.7 hPa | 0 mm | - | 671 W/m² | - |
* Rain latest hour (hover to see other rain measurements)
** Current wind speed in m/s (hover to see current wind gust speed)